Time;durP1;ratioP1;P1;durP2;ratioP2;P2;SDS_P1;SDS_P2;PMS_P1;PMS_P2;Temp;Humidity;BMP_temperature;BMP_pressure;BME280_temperature;BME280_humidity;BME280_pressure;Samples;Min_cycle;Max_cycle;Signal;HPM_P1;HPM_P2
2024/03/24 00:00:19;;;;;;;12.87;7.93;;;4.30;99.90;;;;;;5045097;28;20552;-81
2024/03/24 00:02:46;;;;;;;16.33;8.33;;;4.20;99.90;;;;;;5047471;28;20222;-80
2024/03/24 00:05:12;;;;;;;13.90;8.27;;;4.20;99.90;;;;;;5046064;28;20234;-81
2024/03/24 00:07:38;;;;;;;15.47;8.40;;;4.10;99.90;;;;;;5043219;28;20241;-80
2024/03/24 00:10:06;;;;;;;12.63;7.93;;;4.10;99.90;;;;;;5049534;28;20196;-80
2024/03/24 00:12:33;;;;;;;16.13;9.10;;;4.10;99.90;;;;;;5055012;28;20219;-80
2024/03/24 00:15:00;;;;;;;15.30;8.27;;;4.20;99.90;;;;;;5048149;28;20203;-80
2024/03/24 00:17:27;;;;;;;14.20;8.33;;;4.20;99.90;;;;;;5051267;28;20202;-80
2024/03/24 00:19:53;;;;;;;13.63;8.47;;;4.20;1.00;;;;;;5057710;28;20236;-80
2024/03/24 00:22:20;;;;;;;11.70;7.80;;;4.20;1.00;;;;;;5054917;28;20222;-80
2024/03/24 00:24:46;;;;;;;12.80;7.80;;;4.20;46.60;;;;;;5055622;28;20214;-80
2024/03/24 00:27:13;;;;;;;15.93;7.93;;;4.10;1.00;;;;;;5049239;28;20198;-80
2024/03/24 00:29:39;;;;;;;15.30;8.33;;;4.20;32.70;;;;;;5055737;28;20709;-80
2024/03/24 00:32:08;;;;;;;16.07;8.73;;;4.20;1.00;;;;;;5055502;28;20226;-81
2024/03/24 00:34:34;;;;;;;13.53;8.37;;;4.30;1.00;;;;;;5061370;28;20204;-80
2024/03/24 00:37:01;;;;;;;16.27;8.30;;;4.20;68.80;;;;;;5065839;28;20607;-81
2024/03/24 00:39:27;;;;;;;14.70;7.90;;;4.30;9.60;;;;;;5055937;28;20196;-80
2024/03/24 00:41:54;;;;;;;15.37;8.33;;;4.30;1.00;;;;;;5067594;28;20272;-80
2024/03/24 00:44:20;;;;;;;16.13;9.37;;;4.40;1.00;;;;;;5066253;28;20266;-80
2024/03/24 00:46:49;;;;;;;17.53;9.23;;;4.30;1.00;;;;;;5062954;28;20194;-80
2024/03/24 00:49:16;;;;;;;16.43;9.33;;;4.30;1.00;;;;;;5062915;28;20257;-80
2024/03/24 00:51:43;;;;;;;15.70;9.30;;;4.20;1.00;;;;;;5060731;28;20732;-80
2024/03/24 00:54:09;;;;;;;18.37;8.97;;;4.20;1.00;;;;;;5061523;28;20202;-80
2024/03/24 00:56:36;;;;;;;13.67;8.47;;;4.10;99.90;;;;;;5053111;28;20222;-80
2024/03/24 00:59:02;;;;;;;15.50;8.57;;;4.20;99.90;;;;;;5049685;28;20223;-80
2024/03/24 01:01:29;;;;;;;17.73;9.30;;;4.20;99.90;;;;;;5039897;28;20585;-80
2024/03/24 01:03:55;;;;;;;16.20;9.07;;;4.10;55.40;;;;;;5046615;28;20207;-80
2024/03/24 01:06:23;;;;;;;14.23;8.33;;;4.20;28.30;;;;;;5043333;28;20253;-80
2024/03/24 01:08:49;;;;;;;14.43;7.83;;;4.20;1.00;;;;;;5044569;28;20236;-80
2024/03/24 01:11:16;;;;;;;12.83;6.93;;;4.20;1.00;;;;;;5054562;28;20199;-80
2024/03/24 01:13:42;;;;;;;11.43;6.33;;;4.10;1.00;;;;;;5051331;28;20206;-80
2024/03/24 01:16:09;;;;;;;12.43;7.17;;;4.10;1.00;;;;;;5054938;28;20219;-80
2024/03/24 01:18:35;;;;;;;13.57;7.33;;;4.20;1.00;;;;;;5051200;28;20246;-80
2024/03/24 01:21:02;;;;;;;13.43;7.43;;;4.20;1.00;;;;;;5050354;28;20194;-80
2024/03/24 01:23:29;;;;;;;12.97;6.87;;;4.40;1.00;;;;;;5056356;28;20600;-81
2024/03/24 01:25:56;;;;;;;12.90;7.10;;;4.10;1.00;;;;;;5055633;28;20671;-80
2024/03/24 01:28:22;;;;;;;12.23;7.27;;;4.10;1.00;;;;;;5055914;28;20227;-80
2024/03/24 01:30:49;;;;;;;11.33;7.10;;;4.10;1.00;;;;;;5063400;28;20201;-80
2024/03/24 01:33:15;;;;;;;11.83;7.27;;;4.00;1.00;;;;;;5047791;28;20223;-80
2024/03/24 01:35:47;;;;;;;13.17;7.43;;;4.00;11.00;;;;;;5063408;28;20226;-80
2024/03/24 01:38:13;;;;;;;12.13;7.40;;;4.10;1.00;;;;;;5062422;28;20220;-81
2024/03/24 01:40:48;;;;;;;13.43;7.27;;;4.10;1.00;;;;;;5054248;28;20239;-80
2024/03/24 01:43:14;;;;;;;12.13;7.00;;;4.20;1.00;;;;;;5060943;28;20598;-80
2024/03/24 01:45:42;;;;;;;13.77;6.70;;;4.20;1.00;;;;;;5057404;28;20354;-80
2024/03/24 01:48:09;;;;;;;12.77;6.63;;;4.20;1.00;;;;;;5070149;28;20602;-80
2024/03/24 01:50:36;;;;;;;13.60;7.47;;;4.30;1.00;;;;;;5069077;28;20712;-81
2024/03/24 01:53:02;;;;;;;15.23;8.10;;;4.30;1.00;;;;;;5059735;28;20219;-81
2024/03/24 01:55:29;;;;;;;11.90;7.50;;;4.20;1.00;;;;;;5054176;28;20609;-80
2024/03/24 01:57:57;;;;;;;13.73;6.47;;;4.20;1.00;;;;;;5054504;28;20203;-80
2024/03/24 02:00:24;;;;;;;16.23;7.90;;;4.30;1.00;;;;;;5055254;28;20199;-80
2024/03/24 02:02:50;;;;;;;14.70;7.57;;;4.40;1.00;;;;;;5046797;28;20257;-80
2024/03/24 02:05:24;;;;;;;15.00;7.67;;;4.40;99.90;;;;;;5040421;28;20199;-80
2024/03/24 02:07:51;;;;;;;13.73;7.60;;;4.50;1.00;;;;;;5042083;28;20201;-81
2024/03/24 02:10:18;;;;;;;12.23;6.70;;;4.40;1.00;;;;;;5046750;28;20593;-81
2024/03/24 02:12:44;;;;;;;13.73;8.13;;;4.40;1.00;;;;;;5048691;28;20368;-80
2024/03/24 02:15:14;;;;;;;12.80;6.73;;;4.40;1.00;;;;;;5044474;28;20234;-81
2024/03/24 02:17:40;;;;;;;15.03;8.13;;;4.50;1.00;;;;;;5056377;28;20306;-81
2024/03/24 02:20:08;;;;;;;11.63;6.80;;;4.50;1.00;;;;;;5053372;28;20237;-81
2024/03/24 02:22:37;;;;;;;13.63;7.30;;;4.50;1.00;;;;;;5052650;28;20231;-80
2024/03/24 02:25:04;;;;;;;13.37;7.10;;;4.60;1.00;;;;;;5057056;28;20649;-81
2024/03/24 02:27:30;;;;;;;13.07;7.17;;;4.60;1.00;;;;;;5053449;28;20200;-80
2024/03/24 02:29:57;;;;;;;13.63;7.10;;;4.70;1.00;;;;;;5058804;28;20218;-80
2024/03/24 02:32:23;;;;;;;14.37;6.73;;;4.60;99.90;;;;;;5059754;28;20255;-81
2024/03/24 02:34:50;;;;;;;11.77;6.70;;;4.70;99.90;;;;;;5060282;28;20860;-80
2024/03/24 02:37:16;;;;;;;15.43;6.93;;;4.70;99.90;;;;;;5062339;28;20244;-81
2024/03/24 02:39:45;;;;;;;10.80;6.60;;;4.70;99.90;;;;;;5055245;28;20198;-81
2024/03/24 02:42:10;;;;;;;11.20;6.63;;;4.60;99.90;;;;;;5062948;28;20281;-81
2024/03/24 02:44:38;;;;;;;12.13;6.03;;;4.60;1.00;;;;;;5061721;28;20204;-81
2024/03/24 02:47:04;;;;;;;10.90;6.50;;;4.60;99.90;;;;;;5060553;28;20269;-80
2024/03/24 02:49:31;;;;;;;10.70;6.93;;;4.60;99.90;;;;;;5065574;28;20286;-80
2024/03/24 02:51:57;;;;;;;12.23;6.60;;;4.60;1.00;;;;;;5057789;28;20246;-81
2024/03/24 02:54:24;;;;;;;10.77;5.97;;;4.60;99.90;;;;;;5064401;28;20629;-81
2024/03/24 02:56:51;;;;;;;9.63;6.20;;;4.70;99.90;;;;;;5055176;28;20222;-80
2024/03/24 02:59:19;;;;;;;11.87;6.73;;;4.70;99.90;;;;;;5057859;28;20199;-80
2024/03/24 03:01:45;;;;;;;11.50;6.03;;;4.70;99.90;;;;;;5056833;28;20227;-81
2024/03/24 03:04:13;;;;;;;10.83;6.53;;;4.80;99.90;;;;;;5058176;28;20282;-80
2024/03/24 03:06:39;;;;;;;10.23;6.63;;;4.80;99.90;;;;;;5052937;28;20228;-81
2024/03/24 03:09:08;;;;;;;12.33;6.10;;;4.80;99.90;;;;;;5047863;28;20235;-81
2024/03/24 03:11:34;;;;;;;11.37;5.63;;;4.80;99.90;;;;;;5046559;28;20227;-80
2024/03/24 03:14:03;;;;;;;13.17;6.00;;;4.90;99.90;;;;;;5053958;28;20676;-80
2024/03/24 03:16:29;;;;;;;10.20;5.87;;;4.90;99.90;;;;;;5056902;28;20219;-80
2024/03/24 03:18:57;;;;;;;11.63;6.30;;;4.90;99.90;;;;;;5053152;28;20190;-81
2024/03/24 03:21:25;;;;;;;12.60;6.37;;;4.90;99.90;;;;;;5049830;28;20666;-81
2024/03/24 03:23:53;;;;;;;9.17;5.73;;;4.90;99.90;;;;;;5058679;28;20194;-80
2024/03/24 03:26:20;;;;;;;11.47;5.83;;;5.00;76.70;;;;;;5056943;28;20214;-80
2024/03/24 03:28:47;;;;;;;9.53;5.73;;;5.00;99.90;;;;;;5061141;28;20265;-80
2024/03/24 03:31:14;;;;;;;13.20;6.57;;;5.00;1.00;;;;;;5062960;28;20198;-80
2024/03/24 03:33:41;;;;;;;11.50;5.90;;;5.00;1.00;;;;;;5059278;28;20199;-81
2024/03/24 03:36:07;;;;;;;13.63;6.10;;;5.00;1.00;;;;;;5059565;28;20219;-80
2024/03/24 03:38:34;;;;;;;11.60;6.90;;;5.00;99.90;;;;;;5058906;28;20219;-80
2024/03/24 03:41:01;;;;;;;14.63;5.70;;;5.10;1.00;;;;;;5061941;28;20246;-80
2024/03/24 03:43:28;;;;;;;13.43;5.97;;;5.00;1.00;;;;;;5062585;28;20227;-81
2024/03/24 03:45:54;;;;;;;11.10;6.07;;;5.10;1.00;;;;;;5067055;28;20589;-81
2024/03/24 03:48:22;;;;;;;9.60;6.23;;;5.20;1.00;;;;;;5057017;28;20195;-81
2024/03/24 03:50:48;;;;;;;10.50;6.57;;;5.10;1.00;;;;;;5061489;28;20233;-81
2024/03/24 03:53:21;;;;;;;11.83;6.00;;;5.10;1.00;;;;;;5056398;28;20294;-81
2024/03/24 03:55:50;;;;;;;11.87;5.90;;;5.10;1.00;;;;;;5061685;28;20210;-80
2024/03/24 03:58:18;;;;;;;14.03;6.00;;;5.10;1.00;;;;;;5060027;28;20680;-81
2024/03/24 04:00:44;;;;;;;10.83;6.27;;;5.00;1.00;;;;;;5062349;28;20214;-81
2024/03/24 04:03:11;;;;;;;8.97;5.73;;;5.10;1.00;;;;;;5056230;28;20215;-81
2024/03/24 04:05:40;;;;;;;10.20;5.73;;;5.00;1.00;;;;;;5058284;28;20585;-81
2024/03/24 04:08:08;;;;;;;9.27;5.93;;;5.00;1.00;;;;;;5062681;28;20199;-81
2024/03/24 04:10:34;;;;;;;9.53;6.10;;;5.00;1.00;;;;;;5049451;28;20234;-81
2024/03/24 04:13:02;;;;;;;14.47;7.87;;;4.90;1.00;;;;;;5048010;28;20219;-81
2024/03/24 04:15:28;;;;;;;10.13;5.43;;;4.90;1.00;;;;;;5047269;28;20693;-80
2024/03/24 04:17:55;;;;;;;12.17;6.40;;;4.90;1.00;;;;;;5059245;28;20245;-80
2024/03/24 04:20:22;;;;;;;11.17;5.97;;;5.00;1.00;;;;;;5047858;28;20227;-79
2024/03/24 04:22:52;;;;;;;12.87;6.53;;;5.10;1.00;;;;;;5054492;28;20321;-80
2024/03/24 04:25:18;;;;;;;12.13;5.70;;;5.10;1.00;;;;;;5052375;28;20291;-80
2024/03/24 04:27:45;;;;;;;14.03;6.57;;;5.10;1.00;;;;;;5058066;28;20285;-81
2024/03/24 04:30:12;;;;;;;10.57;5.73;;;5.10;1.00;;;;;;5050732;28;20231;-80
2024/03/24 04:32:39;;;;;;;12.60;6.13;;;5.20;1.00;;;;;;5056168;28;20364;-80
2024/03/24 04:35:08;;;;;;;8.73;5.53;;;5.20;99.90;;;;;;5060825;28;20247;-80
2024/03/24 04:37:35;;;;;;;9.83;5.27;;;5.20;99.90;;;;;;5051395;28;20600;-80
2024/03/24 04:40:05;;;;;;;10.93;5.47;;;5.20;99.90;;;;;;5052253;28;20217;-80
2024/03/24 04:42:32;;;;;;;10.87;5.87;;;5.20;1.00;;;;;;5061652;28;20218;-80
2024/03/24 04:44:59;;;;;;;10.13;5.87;;;5.20;1.00;;;;;;5059730;28;20198;-80
2024/03/24 04:47:27;;;;;;;11.20;5.57;;;5.20;99.90;;;;;;5067148;28;20194;-80
2024/03/24 04:49:53;;;;;;;10.40;5.67;;;5.20;99.90;;;;;;5067388;28;20236;-80
2024/03/24 04:52:20;;;;;;;10.17;5.47;;;5.20;99.90;;;;;;5054965;28;20243;-80
2024/03/24 04:54:45;;;;;;;10.63;5.80;;;5.20;99.90;;;;;;5051292;28;20212;-80
2024/03/24 04:57:14;;;;;;;12.17;6.27;;;5.20;99.90;;;;;;5064173;28;20669;-80
2024/03/24 04:59:40;;;;;;;11.20;6.50;;;5.20;1.00;;;;;;5049772;28;20199;-79
2024/03/24 05:02:07;;;;;;;10.20;6.13;;;5.20;1.00;;;;;;5052277;28;20290;-80
2024/03/24 05:04:35;;;;;;;13.33;6.60;;;5.20;1.00;;;;;;5051989;28;20238;-80
2024/03/24 05:07:02;;;;;;;12.00;7.30;;;5.00;1.00;;;;;;5061280;28;20718;-79
2024/03/24 05:09:28;;;;;;;13.93;7.40;;;5.00;1.00;;;;;;5056755;28;20650;-80
2024/03/24 05:11:55;;;;;;;14.00;6.90;;;4.90;1.00;;;;;;5054243;28;20279;-79
2024/03/24 05:14:22;;;;;;;14.00;7.00;;;4.90;1.00;;;;;;5047533;28;20301;-78
2024/03/24 05:16:51;;;;;;;12.73;6.90;;;4.70;99.90;;;;;;5051629;28;20237;-80
2024/03/24 05:19:17;;;;;;;12.13;7.47;;;4.70;99.90;;;;;;5039923;28;20688;-78
2024/03/24 05:21:47;;;;;;;15.87;7.13;;;4.60;99.90;;;;;;5054445;28;20225;-80
2024/03/24 05:24:13;;;;;;;13.70;7.50;;;4.60;1.00;;;;;;5048344;28;20285;-81
2024/03/24 05:26:41;;;;;;;13.93;7.40;;;4.60;1.00;;;;;;5053892;28;20726;-82
2024/03/24 05:29:06;;;;;;;14.17;7.33;;;4.70;1.00;;;;;;5046958;28;20217;-83
2024/03/24 05:31:35;;;;;;;13.73;7.27;;;4.70;99.90;;;;;;5057644;28;20214;-82
2024/03/24 05:34:01;;;;;;;16.63;7.10;;;4.60;99.90;;;;;;5052827;28;20662;-79
2024/03/24 05:36:29;;;;;;;14.53;7.00;;;4.70;99.90;;;;;;5053842;28;20308;-79
2024/03/24 05:38:54;;;;;;;14.83;6.70;;;4.70;1.00;;;;;;5059310;28;20202;-80
2024/03/24 05:41:21;;;;;;;15.17;6.87;;;4.80;1.00;;;;;;5055367;28;20224;-80
2024/03/24 05:43:47;;;;;;;12.93;7.03;;;4.80;1.00;;;;;;5059670;28;20230;-81
2024/03/24 05:46:14;;;;;;;12.30;7.13;;;4.90;53.30;;;;;;5063359;28;20207;-80
2024/03/24 05:48:42;;;;;;;11.37;6.80;;;5.00;53.00;;;;;;5057426;28;20238;-80
2024/03/24 05:51:09;;;;;;;10.87;6.17;;;5.00;28.10;;;;;;5063568;28;20281;-79
2024/03/24 05:53:35;;;;;;;10.67;6.57;;;5.00;99.90;;;;;;5059652;28;20226;-77
2024/03/24 05:56:03;;;;;;;13.07;5.97;;;5.00;1.00;;;;;;5059515;28;20288;-78
2024/03/24 05:58:29;;;;;;;9.90;5.67;;;5.00;1.00;;;;;;5045881;28;20258;-80
2024/03/24 06:00:56;;;;;;;10.93;6.40;;;5.10;14.80;;;;;;5049659;28;20216;-79
2024/03/24 06:03:23;;;;;;;11.10;7.07;;;5.00;1.00;;;;;;5055230;28;20222;-79
2024/03/24 06:05:52;;;;;;;11.43;5.80;;;5.00;47.50;;;;;;5052103;28;20207;-79
2024/03/24 06:08:18;;;;;;;10.63;6.20;;;5.00;99.90;;;;;;5051929;28;20230;-80
2024/03/24 06:10:46;;;;;;;9.83;5.80;;;5.00;99.90;;;;;;5054580;28;20291;-79
2024/03/24 06:13:12;;;;;;;11.93;5.60;;;5.00;1.00;;;;;;5056949;28;20261;-80
2024/03/24 06:15:39;;;;;;;11.97;5.90;;;4.90;99.90;;;;;;5056191;28;20238;-79
2024/03/24 06:18:06;;;;;;;9.10;5.70;;;4.80;1.00;;;;;;5048832;28;20223;-80
2024/03/24 06:20:33;;;;;;;8.80;5.60;;;4.80;1.00;;;;;;5058349;28;20558;-79
2024/03/24 06:23:01;;;;;;;9.47;5.60;;;4.80;99.90;;;;;;5057162;28;20236;-80
2024/03/24 06:25:28;;;;;;;9.60;5.37;;;4.70;1.00;;;;;;5055217;28;20230;-80
2024/03/24 06:27:55;;;;;;;9.30;5.30;;;4.70;1.00;;;;;;5062248;28;20207;-80
2024/03/24 06:30:22;;;;;;;11.33;5.90;;;4.70;1.00;;;;;;5055913;28;20215;-81
2024/03/24 06:32:49;;;;;;;10.57;6.23;;;4.70;99.90;;;;;;5056788;28;20257;-81
2024/03/24 06:35:15;;;;;;;10.50;5.37;;;4.70;99.90;;;;;;5052701;28;20298;-80
2024/03/24 06:37:42;;;;;;;10.70;6.00;;;4.70;1.00;;;;;;5052429;28;20249;-82
2024/03/24 06:40:10;;;;;;;11.63;6.63;;;4.80;99.90;;;;;;5056631;28;20246;-81
2024/03/24 06:42:43;;;;;;;12.83;6.77;;;4.80;1.00;;;;;;5052673;28;20762;-83
2024/03/24 06:45:10;;;;;;;12.37;6.43;;;4.80;1.00;;;;;;5063321;28;20230;-79
2024/03/24 06:47:37;;;;;;;11.77;6.87;;;4.70;1.00;;;;;;5062444;28;20220;-80
2024/03/24 06:50:05;;;;;;;11.13;6.10;;;4.70;99.90;;;;;;5062484;28;20246;-81
2024/03/24 06:52:32;;;;;;;14.93;7.37;;;4.70;99.90;;;;;;5054432;28;20212;-81
2024/03/24 06:54:58;;;;;;;12.03;6.87;;;4.80;20.40;;;;;;5050883;28;20265;-81
2024/03/24 06:57:27;;;;;;;12.57;6.93;;;4.80;1.00;;;;;;5055336;28;20229;-81
2024/03/24 06:59:53;;;;;;;14.17;7.53;;;4.90;1.00;;;;;;5057246;28;20257;-83
2024/03/24 07:02:20;;;;;;;12.03;6.77;;;4.90;1.00;;;;;;5050700;28;20216;-81
2024/03/24 07:04:46;;;;;;;13.23;7.27;;;5.00;1.00;;;;;;5052614;28;20214;-81
2024/03/24 07:07:13;;;;;;;13.50;7.87;;;5.10;1.00;;;;;;5048207;28;20205;-81
2024/03/24 07:09:39;;;;;;;9.87;6.30;;;5.10;99.90;;;;;;5057866;28;20203;-80
2024/03/24 07:12:06;;;;;;;13.63;7.57;;;5.20;99.90;;;;;;5059211;28;20219;-82
2024/03/24 07:14:34;;;;;;;13.07;7.67;;;5.30;1.00;;;;;;5064446;28;20206;-81
2024/03/24 07:17:01;;;;;;;13.23;7.33;;;5.30;1.00;;;;;;5048817;28;20226;-81
2024/03/24 07:19:27;;;;;;;14.33;7.63;;;5.30;1.00;;;;;;5054148;28;20326;-82
2024/03/24 07:21:54;;;;;;;13.20;7.60;;;5.40;1.00;;;;;;5055916;28;20284;-82
2024/03/24 07:24:20;;;;;;;13.00;7.27;;;5.50;1.00;;;;;;5052857;28;20200;-81
2024/03/24 07:26:47;;;;;;;13.87;6.80;;;5.50;1.00;;;;;;5051658;28;20277;-81
2024/03/24 07:29:13;;;;;;;11.20;6.77;;;5.50;1.00;;;;;;5055079;28;20234;-81
2024/03/24 07:31:41;;;;;;;10.47;6.33;;;5.50;99.90;;;;;;5053105;28;20716;-81
2024/03/24 07:34:08;;;;;;;10.33;5.47;;;5.60;99.90;;;;;;5054534;28;20235;-81
2024/03/24 07:36:37;;;;;;;12.00;6.30;;;5.60;1.00;;;;;;5056970;28;20210;-81
2024/03/24 07:39:03;;;;;;;10.63;5.67;;;5.60;1.00;;;;;;5054410;28;20199;-81
2024/03/24 07:41:30;;;;;;;9.20;5.20;;;5.60;1.00;;;;;;5047946;28;20238;-80
2024/03/24 07:43:57;;;;;;;8.93;5.07;;;5.60;1.00;;;;;;5056165;28;20261;-82
2024/03/24 07:46:23;;;;;;;8.63;5.40;;;5.60;1.00;;;;;;5056962;28;20213;-82
2024/03/24 07:48:51;;;;;;;8.17;5.20;;;5.60;1.00;;;;;;5069899;28;20259;-81
2024/03/24 07:51:18;;;;;;;6.77;4.30;;;5.50;1.00;;;;;;5055406;28;20661;-81
2024/03/24 07:53:44;;;;;;;5.43;3.80;;;5.50;1.00;;;;;;5054484;28;20219;-80
2024/03/24 07:56:11;;;;;;;6.17;4.30;;;5.40;1.00;;;;;;5055118;28;20196;-82
2024/03/24 07:58:37;;;;;;;7.77;4.73;;;5.40;1.00;;;;;;5048522;28;20667;-80
2024/03/24 08:01:04;;;;;;;9.03;4.83;;;5.40;1.00;;;;;;5047899;28;20227;-82
2024/03/24 08:03:30;;;;;;;5.87;4.17;;;5.40;1.00;;;;;;5049793;28;20258;-81
2024/03/24 08:05:58;;;;;;;7.43;4.53;;;5.40;99.90;;;;;;5057390;28;20223;-82
2024/03/24 08:08:24;;;;;;;5.07;3.43;;;5.50;99.90;;;;;;5059095;28;20251;-82
2024/03/24 08:10:51;;;;;;;9.00;4.70;;;5.40;99.90;;;;;;5049536;28;20645;-82
2024/03/24 08:13:17;;;;;;;5.83;4.30;;;5.50;1.00;;;;;;5049804;28;20250;-82
2024/03/24 08:15:44;;;;;;;5.43;3.27;;;5.40;1.00;;;;;;5054250;28;20213;-81
2024/03/24 08:18:11;;;;;;;7.87;3.73;;;5.50;66.30;;;;;;5051639;28;20850;-81
2024/03/24 08:20:44;;;;;;;7.47;3.73;;;5.50;1.00;;;;;;5054964;28;20195;-81
2024/03/24 08:23:12;;;;;;;4.60;3.17;;;5.50;99.90;;;;;;5058379;28;20258;-81
2024/03/24 08:25:39;;;;;;;4.47;3.10;;;5.60;1.00;;;;;;5061679;28;20214;-81
2024/03/24 08:28:08;;;;;;;3.13;2.83;;;5.50;1.00;;;;;;5056419;28;20203;-83
2024/03/24 08:30:35;;;;;;;5.30;3.57;;;5.10;1.00;;;;;;5055961;28;20191;-81
2024/03/24 08:33:01;;;;;;;4.00;3.10;;;5.40;99.90;;;;;;5054514;28;20303;-81
2024/03/24 08:35:28;;;;;;;6.23;3.27;;;5.40;1.00;;;;;;5053470;28;20210;-81
2024/03/24 08:37:54;;;;;;;4.73;3.03;;;5.40;1.00;;;;;;5050999;28;20641;-82
2024/03/24 08:40:22;;;;;;;2.90;2.60;;;5.30;99.90;;;;;;5060504;28;20198;-81
2024/03/24 08:42:48;;;;;;;3.57;2.53;;;5.40;1.00;;;;;;5059179;28;20268;-82
2024/03/24 08:45:17;;;;;;;4.17;2.90;;;5.60;1.00;;;;;;5065065;28;20238;-82
2024/03/24 08:47:43;;;;;;;3.53;2.93;;;5.70;21.80;;;;;;5063806;28;20225;-82
2024/03/24 08:50:10;;;;;;;3.43;3.00;;;5.80;1.00;;;;;;5067596;28;20198;-83
2024/03/24 08:52:36;;;;;;;4.47;3.03;;;5.90;1.00;;;;;;5059708;28;20257;-82
2024/03/24 08:55:03;;;;;;;5.27;4.00;;;5.90;1.00;;;;;;5060257;28;20219;-82
2024/03/24 08:57:30;;;;;;;5.40;3.60;;;6.00;1.00;;;;;;5057496;28;20254;-81
2024/03/24 08:59:58;;;;;;;5.37;3.43;;;6.00;99.90;;;;;;5046944;28;20649;-81
2024/03/24 09:02:24;;;;;;;6.73;4.33;;;6.30;6.90;;;;;;5042318;28;20242;-81
2024/03/24 09:04:53;;;;;;;7.63;4.50;;;6.70;1.00;;;;;;5046177;28;20199;-80
2024/03/24 09:07:19;;;;;;;6.17;4.40;;;6.90;1.00;;;;;;5049909;28;20286;-80
2024/03/24 09:09:46;;;;;;;6.03;4.33;;;6.90;1.00;;;;;;5052267;28;20233;-81
2024/03/24 09:12:13;;;;;;;7.20;4.90;;;7.10;99.90;;;;;;5047197;28;20255;-81
2024/03/24 09:14:42;;;;;;;6.00;3.93;;;7.40;1.00;;;;;;5053700;28;20206;-81
2024/03/24 09:17:08;;;;;;;6.37;4.10;;;7.40;1.00;;;;;;5053834;28;20718;-82
2024/03/24 09:19:35;;;;;;;8.03;4.97;;;7.40;1.00;;;;;;5057180;28;20241;-81
2024/03/24 09:22:01;;;;;;;7.63;4.50;;;7.50;1.00;;;;;;5052594;28;20708;-81
2024/03/24 09:24:28;;;;;;;6.67;4.30;;;7.80;1.00;;;;;;5059752;28;20247;-80
2024/03/24 09:26:57;;;;;;;7.93;4.30;;;7.80;99.90;;;;;;5052850;28;20195;-81
2024/03/24 09:29:24;;;;;;;6.77;4.23;;;7.90;75.40;;;;;;5062008;28;20194;-81
2024/03/24 09:31:51;;;;;;;5.50;3.83;;;8.00;99.90;;;;;;5059389;28;20700;-80
2024/03/24 09:34:18;;;;;;;6.00;4.03;;;8.30;1.00;;;;;;5056024;28;20238;-81
2024/03/24 09:36:44;;;;;;;6.90;4.70;;;8.50;1.00;;;;;;5058000;28;20237;-80
2024/03/24 09:39:13;;;;;;;7.27;3.97;;;8.70;1.00;;;;;;5055447;28;20265;-80
2024/03/24 09:41:42;;;;;;;4.90;3.73;;;9.00;1.00;;;;;;5062314;28;20219;-82
2024/03/24 09:44:11;;;;;;;7.77;3.90;;;8.80;99.90;;;;;;5064914;28;20214;-82
2024/03/24 09:46:40;;;;;;;6.27;4.03;;;8.70;12.90;;;;;;5066931;28;20346;-81
2024/03/24 09:49:12;;;;;;;10.23;3.93;;;8.70;1.00;;;;;;5070424;28;20203;-81
2024/03/24 09:51:39;;;;;;;6.17;3.80;;;8.90;1.00;;;;;;5065111;28;20345;-82
2024/03/24 09:54:09;;;;;;;5.60;3.70;;;9.00;1.00;;;;;;5051991;28;20207;-82
2024/03/24 09:56:36;;;;;;;10.13;4.20;;;9.10;1.00;;;;;;5049585;28;20234;-82
2024/03/24 09:59:04;;;;;;;3.93;3.30;;;9.20;99.90;;;;;;5049761;28;20230;-81
2024/03/24 10:01:31;;;;;;;6.33;3.33;;;9.50;99.90;;;;;;5046555;28;20314;-81
2024/03/24 10:03:58;;;;;;;4.37;3.10;;;9.80;1.00;;;;;;5048629;28;20580;-81
2024/03/24 10:06:26;;;;;;;4.10;3.70;;;9.30;99.90;;;;;;5047723;28;20212;-82
2024/03/24 10:08:53;;;;;;;4.40;3.33;;;9.80;99.90;;;;;;5053608;28;20203;-82
2024/03/24 10:11:29;;;;;;;6.40;3.00;;;9.40;1.00;;;;;;5056861;28;20234;-81
2024/03/24 10:13:57;;;;;;;4.23;2.93;;;9.60;1.00;;;;;;5049337;28;20205;-82
2024/03/24 10:16:24;;;;;;;5.07;2.80;;;9.60;1.00;;;;;;5051268;28;20231;-80
2024/03/24 10:18:51;;;;;;;3.53;2.30;;;9.80;1.00;;;;;;5058346;28;20230;-81
2024/03/24 10:21:18;;;;;;;4.40;2.33;;;9.80;1.00;;;;;;5053636;28;20686;-82
2024/03/24 10:23:47;;;;;;;4.70;2.40;;;10.30;1.00;;;;;;5057223;28;20631;-81
2024/03/24 10:26:18;;;;;;;5.47;2.43;;;10.30;99.90;;;;;;5060758;28;20256;-82
2024/03/24 10:28:45;;;;;;;2.73;2.00;;;10.00;99.90;;;;;;5066883;28;20260;-82
2024/03/24 10:31:11;;;;;;;5.70;2.50;;;10.20;99.90;;;;;;5062485;28;20558;-82
2024/03/24 10:33:39;;;;;;;4.60;2.30;;;10.50;99.90;;;;;;5061245;28;20203;-82
2024/03/24 10:36:06;;;;;;;3.77;2.20;;;10.10;47.40;;;;;;5062174;28;20214;-80
2024/03/24 10:38:34;;;;;;;3.83;2.63;;;10.20;2.60;;;;;;5063774;28;20262;-80
2024/03/24 10:41:03;;;;;;;3.00;2.30;;;9.90;31.10;;;;;;5068537;28;20240;-81
2024/03/24 10:43:34;;;;;;;3.47;2.10;;;10.00;1.00;;;;;;5062588;28;20240;-82
2024/03/24 10:46:00;;;;;;;4.40;2.20;;;10.00;1.00;;;;;;5060526;28;20642;-80
2024/03/24 10:48:29;;;;;;;3.00;2.13;;;9.80;1.00;;;;;;5066789;28;20209;-83
2024/03/24 10:50:56;;;;;;;4.07;1.63;;;9.70;1.00;;;;;;5062880;28;20690;-82
2024/03/24 10:53:26;;;;;;;4.77;2.43;;;9.90;1.00;;;;;;5055353;28;20231;-82
2024/03/24 10:55:52;;;;;;;4.23;2.10;;;9.90;1.00;;;;;;5052922;28;20239;-84
2024/03/24 10:58:22;;;;;;;6.33;1.90;;;9.80;1.00;;;;;;5043681;28;20257;-83
2024/03/24 11:00:48;;;;;;;6.73;2.13;;;9.90;1.00;;;;;;5055701;28;20260;-82
2024/03/24 11:03:16;;;;;;;4.23;1.83;;;9.90;1.00;;;;;;5050243;28;20250;-83
2024/03/24 11:05:44;;;;;;;4.13;1.60;;;10.00;1.00;;;;;;5047793;28;20271;-83
2024/03/24 11:08:13;;;;;;;2.63;1.53;;;10.00;1.00;;;;;;5057937;28;20222;-83
2024/03/24 11:10:41;;;;;;;3.07;2.03;;;10.20;1.00;;;;;;5056072;28;20206;-83
2024/03/24 11:13:10;;;;;;;3.37;1.73;;;10.30;1.00;;;;;;5051801;28;20215;-82
2024/03/24 11:15:40;;;;;;;3.93;1.90;;;10.10;1.00;;;;;;5050309;28;20234;-82
2024/03/24 11:18:18;;;;;;;3.73;1.90;;;10.20;1.00;;;;;;5045626;28;20231;-82
2024/03/24 11:20:44;;;;;;;5.33;2.20;;;10.20;1.00;;;;;;5057999;28;20222;-83
2024/03/24 11:23:17;;;;;;;6.53;2.33;;;10.10;1.00;;;;;;5053337;28;20639;-82
2024/03/24 11:25:48;;;;;;;4.90;2.23;;;10.40;1.00;;;;;;5060687;28;20653;-81
2024/03/24 11:28:40;;;;;;;5.43;2.80;;;10.20;1.00;;;;;;5053420;28;20203;-82
2024/03/24 11:31:15;;;;;;;3.60;2.40;;;9.80;1.00;;;;;;5062537;28;20236;-81
2024/03/24 11:33:44;;;;;;;5.20;2.47;;;9.50;99.90;;;;;;5051090;28;20233;-81
2024/03/24 11:36:20;;;;;;;4.90;2.30;;;9.20;99.90;;;;;;5063724;28;20248;-82
2024/03/24 11:38:46;;;;;;;3.53;2.43;;;9.30;1.00;;;;;;5049910;28;20230;-82
2024/03/24 11:41:17;;;;;;;8.70;3.10;;;9.40;1.00;;;;;;5060483;28;20252;-82
2024/03/24 11:43:43;;;;;;;5.53;2.50;;;9.50;1.00;;;;;;5060434;28;20242;-81
2024/03/24 11:46:11;;;;;;;5.90;2.63;;;9.50;99.90;;;;;;5066899;28;20241;-80
2024/03/24 11:48:39;;;;;;;4.83;2.50;;;9.60;99.90;;;;;;5070197;28;20195;-82
2024/03/24 11:51:07;;;;;;;3.47;2.43;;;10.10;1.00;;;;;;5071541;28;20203;-82
2024/03/24 11:53:34;;;;;;;4.77;2.50;;;10.10;99.90;;;;;;5055200;28;20234;-82
2024/03/24 11:56:02;;;;;;;3.93;2.63;;;10.10;99.90;;;;;;5049812;28;20203;-82
2024/03/24 11:58:28;;;;;;;5.37;2.60;;;10.10;99.90;;;;;;5038459;28;20223;-82
2024/03/24 12:00:55;;;;;;;4.70;2.30;;;9.80;99.90;;;;;;5038782;28;20290;-81
2024/03/24 12:03:21;;;;;;;4.60;2.60;;;9.80;99.90;;;;;;5039562;28;20225;-81
2024/03/24 12:05:52;;;;;;;7.63;2.90;;;9.70;99.90;;;;;;5054051;28;20306;-83
2024/03/24 12:08:20;;;;;;;6.20;2.53;;;9.50;99.90;;;;;;5040731;28;20196;-83
2024/03/24 12:10:47;;;;;;;6.83;2.73;;;9.50;99.90;;;;;;5046132;28;20851;-84
2024/03/24 12:13:15;;;;;;;7.17;2.90;;;9.60;99.90;;;;;;5049860;28;20281;-82
2024/03/24 12:15:44;;;;;;;6.97;3.00;;;9.60;99.90;;;;;;5045334;28;20199;-81
2024/03/24 12:18:11;;;;;;;6.93;2.80;;;9.60;99.90;;;;;;5053216;28;20223;-80
2024/03/24 12:20:38;;;;;;;7.60;2.83;;;9.30;99.90;;;;;;5053572;28;20198;-81
2024/03/24 12:23:06;;;;;;;7.60;3.23;;;9.00;99.90;;;;;;5051786;28;20738;-81
2024/03/24 12:25:33;;;;;;;6.67;3.80;;;8.90;1.00;;;;;;5053943;28;20211;-81
2024/03/24 12:28:00;;;;;;;8.03;3.33;;;8.90;1.00;;;;;;5051207;28;20214;-82
2024/03/24 12:30:30;;;;;;;4.37;3.03;;;8.90;1.00;;;;;;5056426;28;20571;-82
2024/03/24 12:32:56;;;;;;;5.53;3.10;;;8.80;1.00;;;;;;5062817;28;20230;-81
2024/03/24 12:35:24;;;;;;;7.33;3.30;;;8.70;1.00;;;;;;5048915;28;20198;-82
2024/03/24 12:37:51;;;;;;;5.83;3.47;;;8.60;99.90;;;;;;5058120;28;20312;-82
2024/03/24 12:40:21;;;;;;;6.23;2.93;;;8.70;99.90;;;;;;5052792;28;20199;-82
2024/03/24 12:42:47;;;;;;;4.47;2.90;;;8.70;1.00;;;;;;5066462;28;20226;-81
2024/03/24 12:45:16;;;;;;;3.90;2.90;;;8.50;1.00;;;;;;5066364;28;20578;-81
2024/03/24 12:47:42;;;;;;;5.30;3.00;;;8.40;99.90;;;;;;5057910;28;20256;-81
2024/03/24 12:50:26;;;;;;;6.57;2.97;;;8.10;1.00;;;;;;5065902;28;20237;-81
2024/03/24 12:53:00;;;;;;;4.70;3.00;;;7.90;99.90;;;;;;5045617;28;20258;-82
2024/03/24 12:55:32;;;;;;;4.10;2.70;;;7.60;1.00;;;;;;5053178;28;20201;-83
2024/03/24 12:58:00;;;;;;;6.70;2.83;;;7.60;1.00;;;;;;5044374;28;20306;-81